createdAt,value
2024-05-09T00:02:18.895Z,11.90
2024-05-09T00:05:06.646Z,11.90
2024-05-09T00:07:57.207Z,11.90
2024-05-09T00:10:44.712Z,11.90
2024-05-09T00:13:32.588Z,11.90
2024-05-09T00:16:19.924Z,11.90
2024-05-09T00:19:07.983Z,12.00
2024-05-09T00:21:56.042Z,11.90
2024-05-09T00:24:46.461Z,11.90
2024-05-09T00:27:33.725Z,11.90
2024-05-09T00:30:30.674Z,12.00
2024-05-09T00:33:22.072Z,12.00
2024-05-09T00:36:09.626Z,12.00
2024-05-09T00:38:57.541Z,12.00
2024-05-09T00:41:47.500Z,12.00
2024-05-09T00:44:35.502Z,12.00
2024-05-09T00:47:24.113Z,12.00
2024-05-09T00:50:19.222Z,12.00
2024-05-09T00:53:12.274Z,12.10
2024-05-09T00:56:01.356Z,12.10
2024-05-09T00:58:52.076Z,12.10
2024-05-09T01:01:41.996Z,12.00
2024-05-09T01:04:29.610Z,12.00
2024-05-09T01:07:17.126Z,12.00
2024-05-09T01:10:09.186Z,12.00
2024-05-09T01:12:59.389Z,12.00
2024-05-09T01:15:50.180Z,11.90
2024-05-09T01:18:38.086Z,11.80
2024-05-09T01:21:26.006Z,11.80
2024-05-09T01:24:16.103Z,11.80
2024-05-09T01:27:04.260Z,11.80
2024-05-09T01:29:51.523Z,11.80
2024-05-09T01:32:39.552Z,11.80
2024-05-09T01:35:27.883Z,11.70
2024-05-09T01:38:17.349Z,11.70
2024-05-09T01:41:08.282Z,11.80
2024-05-09T01:43:56.103Z,11.90
2024-05-09T01:46:43.915Z,11.80
2024-05-09T01:49:34.158Z,11.80
2024-05-09T01:52:22.105Z,11.80
2024-05-09T01:55:09.953Z,11.80
2024-05-09T01:57:59.814Z,11.80
2024-05-09T02:00:47.489Z,11.70
2024-05-09T02:03:35.138Z,11.70
2024-05-09T02:06:23.031Z,11.70
2024-05-09T02:09:10.582Z,11.70
2024-05-09T02:11:58.520Z,11.70
2024-05-09T02:14:48.555Z,11.70
2024-05-09T02:17:36.506Z,11.70
2024-05-09T02:20:33.062Z,11.70
2024-05-09T02:23:23.935Z,11.80
2024-05-09T02:26:11.477Z,11.70
2024-05-09T02:29:00.033Z,11.70
2024-05-09T02:31:50.180Z,11.70
2024-05-09T02:34:38.150Z,11.60
2024-05-09T02:37:25.611Z,11.70
2024-05-09T02:40:15.029Z,11.60
2024-05-09T02:43:12.195Z,11.60
2024-05-09T02:46:00.751Z,11.70
2024-05-09T02:48:51.009Z,11.70
2024-05-09T02:51:38.564Z,11.60
2024-05-09T02:54:26.577Z,11.60
2024-05-09T02:57:14.182Z,11.70
2024-05-09T03:00:01.772Z,11.70
2024-05-09T03:02:49.425Z,11.70
2024-05-09T03:05:40.581Z,11.70
2024-05-09T03:08:28.617Z,11.60
2024-05-09T03:11:23.392Z,11.60
2024-05-09T03:14:11.027Z,11.70
2024-05-09T03:16:58.973Z,11.70
2024-05-09T03:19:46.501Z,11.70
2024-05-09T03:22:37.084Z,11.60
2024-05-09T03:25:24.543Z,11.60
2024-05-09T03:28:13.666Z,11.60
2024-05-09T03:31:00.921Z,11.60
2024-05-09T03:33:49.018Z,11.60
2024-05-09T03:36:40.712Z,11.60
2024-05-09T03:39:31.199Z,11.60
2024-05-09T03:42:18.475Z,11.60
2024-05-09T03:45:06.815Z,11.60
2024-05-09T03:47:54.319Z,11.70
2024-05-09T03:50:42.602Z,11.70
2024-05-09T03:53:30.124Z,11.70
2024-05-09T03:56:20.647Z,11.70
2024-05-09T03:59:08.138Z,11.70
2024-05-09T04:01:56.236Z,11.80
2024-05-09T04:04:45.050Z,11.80
2024-05-09T04:07:34.485Z,11.70
2024-05-09T04:10:30.197Z,11.80
2024-05-09T04:13:23.661Z,11.80
2024-05-09T04:16:11.506Z,11.80
2024-05-09T04:18:59.447Z,11.80
2024-05-09T04:21:46.977Z,11.80
2024-05-09T04:24:34.837Z,11.80
2024-05-09T04:27:22.095Z,11.80
2024-05-09T04:30:19.096Z,11.80
2024-05-09T04:33:15.310Z,11.80
2024-05-09T04:36:03.548Z,11.80
2024-05-09T04:38:50.814Z,11.80
2024-05-09T04:41:39.182Z,11.90
2024-05-09T04:44:26.723Z,11.80
2024-05-09T04:47:17.138Z,11.90
2024-05-09T04:50:08.855Z,12.00
2024-05-09T04:52:58.917Z,12.00
2024-05-09T04:55:46.951Z,12.10
2024-05-09T04:58:34.406Z,12.10
2024-05-09T05:01:22.082Z,12.00
2024-05-09T05:04:12.342Z,12.00
2024-05-09T05:07:02.509Z,12.10
2024-05-09T05:09:50.398Z,12.10
2024-05-09T05:12:56.684Z,12.20
2024-05-09T05:15:45.080Z,12.20
2024-05-09T05:18:32.764Z,12.20
2024-05-09T05:21:22.992Z,12.20
2024-05-09T05:24:10.990Z,12.10
2024-05-09T05:26:58.287Z,12.10
2024-05-09T05:29:45.709Z,12.20
2024-05-09T05:32:33.398Z,12.20
2024-05-09T05:35:21.570Z,12.30
2024-05-09T05:38:11.736Z,12.40
2024-05-09T05:40:59.284Z,12.30
2024-05-09T05:43:46.802Z,12.40
2024-05-09T05:46:34.397Z,12.50
2024-05-09T05:49:21.750Z,12.60
2024-05-09T05:52:11.478Z,12.50
2024-05-09T05:55:01.714Z,12.50
2024-05-09T05:57:49.019Z,12.60
2024-05-09T06:00:39.279Z,12.70
2024-05-09T06:03:29.433Z,12.90
2024-05-09T06:06:17.439Z,13.10
2024-05-09T06:09:04.916Z,13.10
2024-05-09T06:11:55.434Z,13.10
2024-05-09T06:14:43.312Z,13.20
2024-05-09T06:17:31.611Z,13.40
2024-05-09T06:20:24.056Z,13.50
2024-05-09T06:23:19.770Z,13.70
2024-05-09T06:26:07.277Z,13.80
2024-05-09T06:28:58.044Z,14.10
2024-05-09T06:31:46.605Z,14.10
2024-05-09T06:34:34.758Z,14.00
2024-05-09T06:37:22.281Z,14.10
2024-05-09T06:40:12.557Z,14.10
2024-05-09T06:43:02.274Z,14.20
2024-05-09T06:45:55.143Z,14.30
2024-05-09T06:48:43.481Z,14.60
2024-05-09T06:51:31.030Z,14.80
2024-05-09T06:54:18.891Z,14.70
2024-05-09T06:57:06.365Z,14.50
2024-05-09T06:59:56.620Z,14.70
2024-05-09T07:02:47.782Z,14.90
2024-05-09T07:05:35.877Z,15.20
2024-05-09T07:08:23.451Z,15.40
2024-05-09T07:11:11.041Z,15.50
2024-05-09T07:13:58.777Z,15.70
2024-05-09T07:16:46.336Z,15.80
2024-05-09T07:19:36.656Z,16.00
2024-05-09T07:22:25.766Z,15.80
2024-05-09T07:25:13.095Z,15.30
2024-05-09T07:28:00.679Z,15.00
2024-05-09T07:30:48.381Z,14.70
2024-05-09T07:33:35.895Z,14.70
2024-05-09T07:36:26.392Z,15.00
2024-05-09T07:39:13.733Z,15.30
2024-05-09T07:42:01.036Z,15.30
2024-05-09T07:44:48.880Z,15.70
2024-05-09T07:48:58.133Z,15.90
2024-05-09T07:53:47.512Z,16.80
2024-05-09T07:56:38.985Z,17.00
2024-05-09T07:59:26.356Z,16.90
2024-05-09T08:02:14.401Z,17.10
2024-05-09T08:05:01.928Z,16.70
2024-05-09T08:07:50.696Z,17.20
2024-05-09T08:10:40.766Z,17.90
2024-05-09T08:13:28.696Z,18.00
2024-05-09T08:16:16.067Z,18.00
2024-05-09T08:19:03.923Z,18.10
2024-05-09T08:21:51.683Z,17.80
2024-05-09T08:24:39.209Z,17.20
2024-05-09T08:27:29.697Z,17.00
2024-05-09T08:30:24.673Z,17.20
2024-05-09T08:33:17.380Z,18.10
2024-05-09T08:36:05.032Z,18.60
2024-05-09T08:38:52.714Z,19.00
2024-05-09T08:41:42.771Z,19.20
2024-05-09T08:44:33.142Z,19.40
2024-05-09T08:47:20.635Z,19.50
2024-05-09T08:50:20.241Z,19.80
2024-05-09T08:53:16.562Z,20.30
2024-05-09T08:56:05.687Z,20.40
2024-05-09T08:58:55.957Z,21.10
2024-05-09T09:01:47.564Z,21.30
2024-05-09T09:04:39.156Z,21.50
2024-05-09T09:07:27.715Z,21.50
2024-05-09T09:10:24.908Z,21.90
2024-05-09T09:13:17.580Z,21.40
2024-05-09T09:16:06.838Z,20.40
2024-05-09T09:18:58.017Z,20.60
2024-05-09T09:21:45.643Z,20.70
2024-05-09T09:24:33.609Z,20.40
2024-05-09T09:27:22.450Z,20.00
2024-05-09T09:30:22.947Z,19.80
2024-05-09T09:33:18.517Z,20.00
2024-05-09T09:36:11.187Z,19.20
2024-05-09T09:38:59.132Z,19.30
2024-05-09T09:41:48.876Z,19.50
2024-05-09T09:44:39.605Z,19.40
2024-05-09T09:47:32.140Z,19.60
2024-05-09T09:50:27.556Z,18.80
2024-05-09T09:53:24.261Z,18.60
2024-05-09T09:56:13.269Z,18.20
2024-05-09T09:59:04.190Z,18.10
2024-05-09T10:01:51.676Z,18.20
2024-05-09T10:04:40.037Z,18.10
2024-05-09T10:07:29.673Z,17.80
2024-05-09T10:10:31.880Z,17.70
2024-05-09T10:13:21.280Z,17.60
2024-05-09T10:16:11.492Z,17.90
2024-05-09T10:18:59.351Z,18.20
2024-05-09T10:21:47.405Z,18.20
2024-05-09T10:24:48.474Z,18.00
2024-05-09T10:27:39.096Z,17.50
2024-05-09T10:30:34.059Z,17.30
2024-05-09T10:33:24.749Z,17.10
2024-05-09T10:36:12.849Z,17.10
2024-05-09T10:39:00.486Z,17.00
2024-05-09T10:41:49.043Z,17.10
2024-05-09T10:44:40.661Z,17.00
2024-05-09T10:47:29.600Z,17.10
2024-05-09T10:50:25.316Z,17.20
2024-05-09T10:53:17.296Z,17.20
2024-05-09T10:56:05.321Z,17.40
2024-05-09T10:58:53.232Z,17.60
2024-05-09T11:01:43.704Z,17.80
2024-05-09T11:04:33.222Z,17.70
2024-05-09T11:07:21.827Z,17.70
2024-05-09T11:10:12.538Z,17.70
2024-05-09T11:13:02.074Z,17.70
2024-05-09T11:15:49.920Z,17.70
2024-05-09T11:18:40.541Z,18.00
2024-05-09T11:21:28.825Z,18.00
2024-05-09T11:24:16.500Z,18.20
2024-05-09T11:27:05.668Z,18.10
2024-05-09T11:29:53.020Z,17.80
2024-05-09T11:32:42.988Z,17.60
2024-05-09T11:35:33.210Z,17.70
2024-05-09T11:38:21.318Z,17.70
2024-05-09T11:41:08.725Z,17.70
2024-05-09T11:43:58.188Z,17.90
2024-05-09T11:46:45.493Z,18.20
2024-05-09T11:49:33.749Z,18.50
2024-05-09T11:52:24.036Z,18.80
2024-05-09T11:55:12.030Z,19.10
2024-05-09T11:57:59.512Z,19.30
2024-05-09T12:00:47.655Z,19.50
2024-05-09T12:03:37.993Z,19.50
2024-05-09T12:06:25.935Z,19.20
2024-05-09T12:09:16.088Z,19.40
2024-05-09T12:12:05.124Z,19.50
2024-05-09T12:14:52.650Z,19.70
2024-05-09T12:17:40.647Z,19.80
2024-05-09T12:20:35.493Z,19.80
2024-05-09T12:23:26.326Z,19.90
2024-05-09T12:26:16.594Z,19.50
2024-05-09T12:29:04.470Z,19.00
2024-05-09T12:31:51.810Z,18.50
2024-05-09T12:34:39.639Z,18.80
2024-05-09T12:37:27.227Z,19.10
2024-05-09T12:40:22.947Z,19.50
2024-05-09T12:43:21.387Z,19.80
2024-05-09T12:46:09.082Z,20.20
2024-05-09T12:48:56.859Z,20.30
2024-05-09T12:51:44.686Z,20.60
2024-05-09T12:54:33.556Z,20.80
2024-05-09T12:57:21.950Z,21.00
2024-05-09T13:00:20.704Z,21.30
2024-05-09T13:03:15.469Z,21.50
2024-05-09T13:06:03.308Z,21.80
2024-05-09T13:08:50.910Z,21.60
2024-05-09T13:11:38.490Z,20.80
2024-05-09T13:14:26.434Z,20.90
2024-05-09T13:17:16.477Z,21.30
2024-05-09T13:20:07.105Z,21.50
2024-05-09T13:22:56.695Z,21.90
2024-05-09T13:25:44.088Z,21.90
2024-05-09T13:28:33.547Z,22.30
2024-05-09T13:31:21.074Z,22.10
2024-05-09T13:34:11.267Z,21.90
2024-05-09T13:36:59.286Z,21.50
2024-05-09T13:39:47.385Z,21.50
2024-05-09T13:42:34.986Z,21.50
2024-05-09T13:45:22.863Z,21.70
2024-05-09T13:48:10.720Z,21.90
2024-05-09T13:51:00.955Z,22.20
2024-05-09T13:53:48.489Z,22.50
2024-05-09T13:56:37.818Z,22.60
2024-05-09T13:59:25.115Z,22.60
2024-05-09T14:02:13.025Z,22.50
2024-05-09T14:05:00.736Z,22.50
2024-05-09T14:07:51.212Z,22.70
2024-05-09T14:10:44.548Z,22.30
2024-05-09T14:13:32.542Z,21.60
2024-05-09T14:16:19.924Z,20.70
2024-05-09T14:19:07.645Z,20.50
2024-05-09T14:21:55.585Z,20.30
2024-05-09T14:24:45.843Z,20.10
2024-05-09T14:27:33.355Z,20.10
2024-05-09T14:30:30.408Z,20.10
2024-05-09T14:33:27.098Z,20.30
2024-05-09T14:36:14.556Z,20.30
2024-05-09T14:39:02.043Z,20.50
2024-05-09T14:41:52.122Z,20.90
2024-05-09T14:44:39.904Z,20.90
2024-05-09T14:47:27.441Z,21.10
2024-05-09T14:50:23.690Z,21.50
2024-05-09T14:53:15.937Z,21.00
2024-05-09T14:56:03.640Z,20.20
2024-05-09T14:58:55.242Z,19.90
2024-05-09T15:01:43.022Z,19.40
2024-05-09T15:04:30.546Z,19.40
2024-05-09T15:07:18.160Z,19.40
2024-05-09T15:10:11.665Z,19.30
2024-05-09T15:13:04.560Z,19.40
2024-05-09T15:15:55.917Z,19.40
2024-05-09T15:18:44.190Z,19.40
2024-05-09T15:21:31.754Z,19.50
2024-05-09T15:27:34.294Z,19.20
2024-05-09T15:30:30.018Z,19.00
2024-05-09T15:33:22.745Z,19.00
2024-05-09T15:36:10.421Z,19.20
2024-05-09T15:38:57.766Z,19.40
2024-05-09T15:41:45.638Z,19.50
2024-05-09T15:45:04.272Z,19.50
2024-05-09T15:48:30.628Z,19.80
2024-05-09T15:51:43.118Z,20.00
2024-05-09T15:54:39.214Z,19.90
2024-05-09T15:57:41.062Z,19.90
2024-05-09T16:00:39.883Z,20.00
2024-05-09T16:03:33.896Z,20.30
2024-05-09T16:06:32.231Z,20.20
2024-05-09T16:09:50.824Z,19.80
2024-05-09T16:12:38.775Z,19.50
2024-05-09T16:15:32.315Z,19.40
2024-05-09T16:18:20.687Z,19.50
2024-05-09T16:21:12.495Z,19.50
2024-05-09T16:24:06.129Z,19.50
2024-05-09T16:27:03.408Z,19.50
2024-05-09T16:29:51.110Z,19.60
2024-05-09T16:32:41.740Z,19.90
2024-05-09T16:35:29.278Z,20.20
2024-05-09T16:38:17.162Z,20.40
2024-05-09T16:41:04.857Z,20.40
2024-05-09T16:43:55.513Z,20.20
2024-05-09T16:46:42.807Z,19.90
2024-05-09T16:49:30.979Z,19.80
2024-05-09T16:52:26.169Z,19.70
2024-05-09T16:55:16.893Z,19.50
2024-05-09T16:58:06.795Z,19.30
2024-05-09T17:00:57.438Z,19.10
2024-05-09T17:03:48.028Z,18.90
2024-05-09T17:07:09.789Z,18.40
2024-05-09T17:09:57.250Z,18.60
2024-05-09T17:12:48.419Z,18.70
2024-05-09T17:15:37.132Z,18.60
2024-05-09T17:18:28.383Z,18.50
2024-05-09T17:21:15.855Z,18.20
2024-05-09T17:24:03.942Z,17.90
2024-05-09T17:26:53.323Z,17.80
2024-05-09T17:29:40.917Z,17.80
2024-05-09T17:32:31.880Z,17.60
2024-05-09T17:35:22.132Z,17.40
2024-05-09T17:38:10.111Z,17.20
2024-05-09T17:40:58.142Z,17.10
2024-05-09T17:43:57.545Z,17.20
2024-05-09T17:46:45.958Z,17.00
2024-05-09T17:49:42.324Z,17.00
2024-05-09T17:52:38.300Z,17.10
2024-05-09T17:55:48.443Z,17.10
2024-05-09T17:58:38.993Z,17.10
2024-05-09T18:01:27.087Z,17.00
2024-05-09T18:04:14.778Z,16.80
2024-05-09T18:07:06.994Z,16.60
2024-05-09T18:09:57.250Z,16.40
2024-05-09T18:12:45.213Z,16.30
2024-05-09T18:15:32.990Z,16.30
2024-05-09T18:18:21.747Z,16.20
2024-05-09T18:21:09.782Z,16.10
2024-05-09T18:23:59.669Z,16.00
2024-05-09T18:26:50.623Z,15.90
2024-05-09T18:29:38.240Z,15.80
2024-05-09T18:32:25.806Z,15.80
2024-05-09T18:35:15.958Z,15.80
2024-05-09T18:38:26.928Z,15.80
2024-05-09T18:41:18.946Z,15.80
2024-05-09T18:44:10.906Z,15.70
2024-05-09T18:47:02.305Z,15.60
2024-05-09T18:49:50.765Z,15.50
2024-05-09T18:52:39.329Z,15.40
2024-05-09T18:55:26.896Z,15.40
2024-05-09T18:58:17.523Z,15.40
2024-05-09T19:01:10.666Z,15.30
2024-05-09T19:04:04.976Z,15.20
2024-05-09T19:06:53.363Z,15.20
2024-05-09T19:09:43.322Z,15.10
2024-05-09T19:12:39.358Z,15.00
2024-05-09T19:15:27.013Z,15.00
2024-05-09T19:18:17.392Z,15.10
2024-05-09T19:21:06.060Z,15.00
2024-05-09T19:23:55.624Z,15.00
2024-05-09T19:26:43.976Z,15.00
2024-05-09T19:29:34.444Z,14.90
2024-05-09T19:32:23.119Z,14.80
2024-05-09T19:35:32.393Z,14.70
2024-05-09T19:38:20.575Z,14.70
2024-05-09T19:41:08.277Z,14.60
2024-05-09T19:43:56.775Z,14.50
2024-05-09T19:46:46.342Z,14.40
2024-05-09T19:49:35.001Z,14.30
2024-05-09T19:52:27.511Z,14.20
2024-05-09T19:55:16.494Z,14.20
2024-05-09T19:58:07.972Z,14.00
2024-05-09T20:00:58.407Z,14.00
2024-05-09T20:03:51.000Z,14.00
2024-05-09T20:06:51.374Z,14.00
2024-05-09T20:09:45.035Z,13.90
2024-05-09T20:12:33.371Z,13.80
2024-05-09T20:15:22.910Z,13.70
2024-05-09T20:18:28.727Z,13.60
2024-05-09T20:21:16.660Z,13.60
2024-05-09T20:24:07.323Z,13.50
2024-05-09T20:26:57.541Z,13.40
2024-05-09T20:29:46.437Z,13.40
2024-05-09T20:32:34.191Z,13.30
2024-05-09T20:35:22.397Z,13.30
2024-05-09T20:38:10.224Z,13.20
2024-05-09T20:41:03.914Z,13.00
2024-05-09T20:43:58.429Z,12.90
2024-05-09T20:46:45.701Z,12.80
2024-05-09T20:49:33.832Z,12.70
2024-05-09T20:52:21.338Z,12.60
2024-05-09T20:55:09.459Z,12.60
2024-05-09T20:57:57.458Z,12.60
2024-05-09T21:00:48.405Z,12.60
2024-05-09T21:03:38.663Z,12.60
2024-05-09T21:06:26.326Z,12.60
2024-05-09T21:09:14.371Z,12.40
2024-05-09T21:12:01.744Z,12.40
2024-05-09T21:14:50.045Z,12.40
2024-05-09T21:17:40.086Z,12.30
2024-05-09T21:20:31.860Z,12.30
2024-05-09T21:23:20.622Z,12.20
2024-05-09T21:26:08.516Z,12.10
2024-05-09T21:28:55.774Z,12.10
2024-05-09T21:31:43.711Z,12.00
2024-05-09T21:34:33.669Z,11.90
2024-05-09T21:37:21.739Z,11.90
2024-05-09T21:40:13.863Z,11.90
2024-05-09T21:43:08.615Z,11.80
2024-05-09T21:45:56.636Z,11.80
2024-05-09T21:48:44.274Z,11.70
2024-05-09T21:51:34.908Z,11.70
2024-05-09T21:54:22.781Z,11.60
2024-05-09T21:57:13.248Z,11.60
2024-05-09T22:00:01.421Z,11.50
2024-05-09T22:02:48.865Z,11.50
2024-05-09T22:05:37.811Z,11.40
2024-05-09T22:08:28.035Z,11.40
2024-05-09T22:11:15.947Z,11.40
2024-05-09T22:14:03.762Z,11.20
2024-05-09T22:16:51.435Z,11.20
2024-05-09T22:19:39.324Z,11.10
2024-05-09T22:22:27.091Z,11.00
2024-05-09T22:25:17.652Z,10.90
2024-05-09T22:28:06.054Z,10.90
2024-05-09T22:30:55.829Z,10.90
2024-05-09T22:33:46.369Z,10.90
2024-05-09T22:36:35.599Z,11.00
2024-05-09T22:39:25.350Z,11.00
2024-05-09T22:42:15.993Z,10.90
2024-05-09T22:48:10.303Z,10.90
2024-05-09T22:50:57.955Z,10.90
2024-05-09T22:53:45.798Z,10.70
2024-05-09T22:56:33.657Z,10.40
2024-05-09T22:59:34.529Z,10.40
2024-05-09T23:02:24.795Z,10.30
2024-05-09T23:05:13.145Z,10.30
2024-05-09T23:08:01.791Z,10.20
2024-05-09T23:10:53.535Z,10.30
2024-05-09T23:13:41.523Z,10.30
2024-05-09T23:16:31.747Z,10.50
2024-05-09T23:19:19.680Z,10.40
2024-05-09T23:22:07.153Z,10.20
2024-05-09T23:24:55.155Z,10.10
2024-05-09T23:27:43.451Z,9.80
2024-05-09T23:30:37.521Z,9.60
2024-05-09T23:33:30.776Z,9.60
2024-05-09T23:36:18.198Z,9.70
2024-05-09T23:39:06.130Z,9.60
2024-05-09T23:41:53.509Z,9.60
2024-05-09T23:44:41.595Z,9.80
2024-05-09T23:47:28.908Z,9.90
2024-05-09T23:50:26.496Z,10.00
2024-05-09T23:53:21.211Z,10.10
2024-05-09T23:56:08.997Z,10.00
2024-05-09T23:58:56.454Z,9.90
